createdAt,value
2023-02-18T00:03:15.187Z,28.21
2023-02-18T00:08:22.008Z,21.07
2023-02-18T00:13:28.213Z,29.28
2023-02-18T00:18:34.789Z,41.78
2023-02-18T00:23:43.623Z,21.78
2023-02-18T00:28:47.653Z,25.35
2023-02-18T00:33:54.178Z,32.50
2023-02-18T00:39:00.880Z,24.64
2023-02-18T00:44:07.429Z,19.28
2023-02-18T00:49:13.994Z,40.71
2023-02-18T00:54:20.460Z,34.64
2023-02-18T00:59:27.350Z,30.71
2023-02-18T01:04:33.805Z,37.85
2023-02-18T01:09:40.464Z,35.71
2023-02-18T01:14:46.877Z,37.50
2023-02-18T01:19:53.661Z,39.64
2023-02-18T01:25:00.007Z,42.85
2023-02-18T01:30:07.708Z,32.14
2023-02-18T01:35:14.091Z,26.78
2023-02-18T01:40:20.691Z,37.14
2023-02-18T01:45:26.925Z,22.85
2023-02-18T01:50:33.286Z,21.07
2023-02-18T01:55:40.794Z,36.42
2023-02-18T02:00:47.112Z,22.14
2023-02-18T02:05:53.694Z,25.00
2023-02-18T02:11:00.212Z,40.71
2023-02-18T02:16:08.146Z,25.00
2023-02-18T02:21:13.791Z,21.07
2023-02-18T02:26:20.354Z,21.07
2023-02-18T02:31:26.632Z,34.28
2023-02-18T02:36:33.194Z,21.78
2023-02-18T02:41:40.730Z,28.57
2023-02-18T02:46:47.394Z,32.14
2023-02-18T02:51:53.603Z,36.42
2023-02-18T02:57:00.226Z,21.07
2023-02-18T03:02:06.752Z,33.92
2023-02-18T03:07:13.577Z,25.35
2023-02-18T03:12:19.934Z,39.28
2023-02-18T03:17:26.586Z,37.85
2023-02-18T03:22:34.166Z,26.78
2023-02-18T03:27:40.702Z,36.07
2023-02-18T03:32:47.395Z,42.85
2023-02-18T03:37:54.218Z,39.28
2023-02-18T03:43:00.777Z,43.57
2023-02-18T03:48:07.423Z,33.21
2023-02-18T03:53:13.997Z,33.92
2023-02-18T03:58:20.607Z,24.64
2023-02-18T04:03:27.182Z,41.07
2023-02-18T04:08:33.952Z,40.35
2023-02-18T04:13:40.389Z,31.78
2023-02-18T04:18:48.133Z,42.85
2023-02-18T04:23:55.618Z,35.00
2023-02-18T04:29:02.232Z,32.14
2023-02-18T04:34:08.771Z,38.21
2023-02-18T04:39:15.492Z,42.50
2023-02-18T04:44:21.881Z,31.07
2023-02-18T04:49:28.694Z,28.93
2023-02-18T04:54:35.082Z,42.14
2023-02-18T04:59:41.945Z,23.93
2023-02-18T05:04:47.976Z,21.78
2023-02-18T05:09:54.747Z,37.85
2023-02-18T05:15:02.128Z,30.00
2023-02-18T05:20:09.994Z,35.35
2023-02-18T05:25:14.580Z,31.43
2023-02-18T05:30:21.401Z,32.50
2023-02-18T05:35:27.504Z,26.07
2023-02-18T05:40:34.290Z,35.71
2023-02-18T05:45:43.713Z,43.57
2023-02-18T05:50:50.559Z,42.50
2023-02-18T05:55:57.930Z,39.64
2023-02-18T06:01:04.628Z,42.14
2023-02-18T06:06:12.260Z,40.00
2023-02-18T06:11:18.317Z,41.78
2023-02-18T06:16:25.827Z,32.85
2023-02-18T06:21:32.557Z,36.42
2023-02-18T06:26:56.721Z,33.57
2023-02-18T06:31:43.281Z,32.14
2023-02-18T06:36:49.316Z,31.78
2023-02-18T06:41:56.202Z,27.50
2023-02-18T06:47:02.689Z,34.28
2023-02-18T06:52:09.467Z,39.28
2023-02-18T06:57:15.666Z,36.42
2023-02-18T07:02:22.370Z,42.50
2023-02-18T07:07:29.843Z,37.85
2023-02-18T07:12:39.866Z,38.57
2023-02-18T07:17:36.343Z,32.85
2023-02-18T07:22:43.068Z,41.07
2023-02-18T07:27:49.885Z,21.07
2023-02-18T07:32:56.203Z,36.07
2023-02-18T07:38:04.107Z,26.78
2023-02-18T07:43:10.525Z,21.78
2023-02-18T07:48:17.491Z,43.21
2023-02-18T07:53:23.660Z,36.07
2023-02-18T07:58:30.310Z,23.57
2023-02-18T08:03:36.741Z,37.50
2023-02-18T08:08:43.508Z,33.57
2023-02-18T08:13:49.729Z,30.71
2023-02-18T08:18:56.303Z,20.71
2023-02-18T08:24:02.603Z,30.00
2023-02-18T08:29:09.299Z,21.07
2023-02-18T08:34:15.898Z,22.85
2023-02-18T08:39:22.309Z,20.00
2023-02-18T08:44:30.737Z,21.78
2023-02-18T08:49:38.469Z,21.07
2023-02-18T08:54:44.668Z,23.93
2023-02-18T08:59:51.488Z,21.07
2023-02-18T09:04:57.756Z,20.71
2023-02-18T09:10:05.836Z,18.93
2023-02-18T09:15:12.279Z,22.14
2023-02-18T09:20:18.863Z,28.21
2023-02-18T09:25:25.434Z,20.00
2023-02-18T09:30:32.086Z,18.93
2023-02-18T09:35:38.582Z,20.71
2023-02-18T09:40:45.273Z,21.43
2023-02-18T09:45:51.498Z,18.21
2023-02-18T09:50:58.012Z,20.35
2023-02-18T09:56:04.200Z,22.50
2023-02-18T10:01:11.308Z,12.86
2023-02-18T10:06:35.339Z,30.35
2023-02-18T10:11:27.131Z,21.07
2023-02-18T10:16:24.559Z,15.00
2023-02-18T10:21:31.244Z,17.14
2023-02-18T10:26:37.581Z,13.57
2023-02-18T10:31:45.425Z,25.35
2023-02-18T10:36:51.762Z,12.14
2023-02-18T10:41:59.417Z,16.78
2023-02-18T10:47:06.736Z,20.71
2023-02-18T10:52:14.346Z,16.78
2023-02-18T10:57:20.529Z,15.71
2023-02-18T11:02:27.211Z,13.93
2023-02-18T11:07:33.442Z,14.28
2023-02-18T11:12:40.062Z,19.28
2023-02-18T11:17:46.337Z,15.00
2023-02-18T11:22:53.416Z,15.36
2023-02-18T11:28:00.719Z,20.71
2023-02-18T11:33:07.421Z,7.50
2023-02-18T11:38:14.007Z,15.36
2023-02-18T11:43:21.589Z,0.00
2023-02-18T11:48:27.982Z,0.71
2023-02-18T11:53:34.665Z,12.14
2023-02-18T11:58:41.257Z,11.99
2023-02-18T12:03:48.868Z,1.82
2023-02-18T12:08:55.247Z,12.50
2023-02-18T12:14:01.860Z,9.28
2023-02-18T12:19:08.198Z,8.36
2023-02-18T12:24:16.109Z,2.86
2023-02-18T12:29:22.301Z,5.81
2023-02-18T12:34:28.928Z,0.00
2023-02-18T12:39:36.137Z,0.73
2023-02-18T12:44:44.089Z,10.90
2023-02-18T12:49:47.686Z,11.99
2023-02-18T12:54:54.356Z,15.26
2023-02-18T13:00:01.117Z,5.81
2023-02-18T13:05:09.298Z,9.64
2023-02-18T13:10:14.686Z,1.45
2023-02-18T13:15:21.453Z,13.57
2023-02-18T13:20:27.806Z,3.93
2023-02-18T13:25:34.385Z,4.36
2023-02-18T13:30:42.647Z,2.91
2023-02-18T13:35:49.126Z,13.08
2023-02-18T13:40:55.311Z,0.00
2023-02-18T13:46:02.727Z,8.57
2023-02-18T13:51:11.344Z,0.00
2023-02-18T13:56:17.091Z,10.53
2023-02-18T14:01:23.485Z,5.81
2023-02-18T14:06:30.217Z,9.81
2023-02-18T14:11:36.500Z,18.89
2023-02-18T14:16:42.814Z,3.39
2023-02-18T14:21:48.773Z,7.63
2023-02-18T14:26:56.388Z,8.65
2023-02-18T14:32:03.142Z,8.87
2023-02-18T14:37:09.492Z,2.54
2023-02-18T14:42:15.546Z,4.72
2023-02-18T14:47:23.374Z,4.29
2023-02-18T14:52:29.434Z,8.28
2023-02-18T14:57:36.515Z,6.07
2023-02-18T15:02:49.746Z,9.03
2023-02-18T15:07:46.827Z,0.00
2023-02-18T15:12:53.208Z,3.70
2023-02-18T15:18:00.307Z,0.00
2023-02-18T15:23:06.635Z,0.00
2023-02-18T15:28:14.010Z,0.00
2023-02-18T15:33:20.419Z,1.82
2023-02-18T15:38:26.558Z,6.07
2023-02-18T15:43:33.050Z,8.72
2023-02-18T15:48:39.182Z,0.00
2023-02-18T15:53:46.406Z,7.99
2023-02-18T15:58:53.906Z,4.29
2023-02-18T16:04:01.258Z,0.00
2023-02-18T16:09:07.725Z,3.57
2023-02-18T16:14:14.409Z,6.07
2023-02-18T16:19:20.361Z,13.80
2023-02-18T16:24:27.456Z,3.21
2023-02-18T16:29:34.720Z,3.93
2023-02-18T16:34:41.404Z,1.07
2023-02-18T16:39:47.289Z,3.21
2023-02-18T16:44:54.793Z,8.93
2023-02-18T16:50:01.933Z,6.07
2023-02-18T16:55:08.608Z,13.93
2023-02-18T17:00:14.772Z,20.35
2023-02-18T17:05:26.735Z,2.14
2023-02-18T17:10:27.563Z,11.78
2023-02-18T17:15:33.994Z,14.28
2023-02-18T17:20:43.711Z,6.78
2023-02-18T17:25:50.112Z,4.29
2023-02-18T17:30:57.559Z,15.36
2023-02-18T17:36:04.173Z,11.43
2023-02-18T17:41:10.176Z,18.21
2023-02-18T17:46:18.329Z,21.43
2023-02-18T17:51:25.215Z,12.50
2023-02-18T17:56:32.565Z,19.28
2023-02-18T18:01:39.810Z,14.28
2023-02-18T18:06:46.391Z,4.29
2023-02-18T18:11:53.144Z,21.07
2023-02-18T18:16:59.590Z,18.93
2023-02-18T18:22:05.769Z,12.14
2023-02-18T18:27:12.382Z,15.71
2023-02-18T18:32:36.961Z,16.78
2023-02-18T18:37:25.287Z,15.00
2023-02-18T18:42:31.474Z,15.00
2023-02-18T18:47:37.888Z,19.28
2023-02-18T18:52:45.109Z,19.28
2023-02-18T18:57:51.429Z,22.85
2023-02-18T19:02:57.747Z,22.14
2023-02-18T19:08:04.251Z,18.93
2023-02-18T19:13:10.550Z,23.57
2023-02-18T19:18:17.462Z,12.86
2023-02-18T19:23:23.751Z,21.07
2023-02-18T19:28:30.045Z,21.07
2023-02-18T19:33:37.210Z,26.78
2023-02-18T19:38:43.567Z,19.64
2023-02-18T19:43:50.044Z,22.85
2023-02-18T19:48:56.735Z,22.14
2023-02-18T19:54:02.844Z,18.57
2023-02-18T19:59:09.208Z,23.93
2023-02-18T20:04:15.269Z,21.78
2023-02-18T20:09:21.826Z,21.43
2023-02-18T20:14:28.260Z,19.28
2023-02-18T20:19:34.618Z,22.50
2023-02-18T20:24:40.894Z,21.07
2023-02-18T20:29:49.467Z,21.07
2023-02-18T20:34:55.522Z,21.07
2023-02-18T20:40:02.060Z,21.07
2023-02-18T20:45:09.391Z,21.43
2023-02-18T20:50:19.292Z,20.00
2023-02-18T20:55:26.122Z,22.85
2023-02-18T21:00:33.515Z,21.07
2023-02-18T21:05:39.449Z,26.43
2023-02-18T21:10:45.936Z,20.00
2023-02-18T21:15:53.811Z,21.07
2023-02-18T21:21:00.476Z,21.07
2023-02-18T21:26:06.401Z,30.35
2023-02-18T21:31:14.301Z,21.07
2023-02-18T21:36:20.686Z,20.35
2023-02-18T21:41:28.774Z,25.00
2023-02-18T21:46:35.903Z,22.85
2023-02-18T21:51:44.299Z,25.00
2023-02-18T21:56:50.199Z,20.35
2023-02-18T22:01:57.973Z,21.07
2023-02-18T22:07:03.952Z,25.00
2023-02-18T22:12:10.361Z,22.14
2023-02-18T22:17:17.461Z,23.93
2023-02-18T22:22:23.937Z,19.28
2023-02-18T22:27:30.007Z,26.78
2023-02-18T22:32:36.379Z,30.00
2023-02-18T22:37:42.282Z,16.07
2023-02-18T22:42:49.921Z,22.14
2023-02-18T22:47:56.131Z,21.07
2023-02-18T22:53:05.912Z,28.93
2023-02-18T22:58:13.075Z,21.07
2023-02-18T23:03:19.431Z,33.21
2023-02-18T23:08:25.504Z,21.43
2023-02-18T23:13:34.176Z,21.07
2023-02-18T23:18:43.302Z,18.21
2023-02-18T23:23:49.766Z,21.07
2023-02-18T23:28:55.878Z,22.50
2023-02-18T23:34:02.305Z,21.78
2023-02-18T23:39:09.462Z,22.50
2023-02-18T23:44:16.175Z,20.00
2023-02-18T23:49:23.297Z,21.78
2023-02-18T23:54:29.837Z,22.50
2023-02-18T23:59:36.158Z,21.43
